createdAt,value
2023-03-11T00:03:20.682Z,26.20
2023-03-11T00:07:20.650Z,26.19
2023-03-11T00:11:20.526Z,26.20
2023-03-11T00:15:20.805Z,26.23
2023-03-11T00:19:20.684Z,26.24
2023-03-11T00:23:20.502Z,26.26
2023-03-11T00:27:20.907Z,26.24
2023-03-11T00:31:20.883Z,26.26
2023-03-11T00:35:20.746Z,26.28
2023-03-11T00:39:20.419Z,26.27
2023-03-11T00:43:20.394Z,26.29
2023-03-11T00:47:20.251Z,26.30
2023-03-11T00:51:20.225Z,26.31
2023-03-11T00:55:20.261Z,26.31
2023-03-11T00:59:20.118Z,26.29
2023-03-11T01:03:20.305Z,26.29
2023-03-11T01:07:20.582Z,26.32
2023-03-11T01:11:20.918Z,26.34
2023-03-11T01:15:20.731Z,26.33
2023-03-11T01:19:20.794Z,26.35
2023-03-11T01:23:20.926Z,26.35
2023-03-11T01:27:20.955Z,26.36
2023-03-11T01:31:21.109Z,26.34
2023-03-11T01:35:21.122Z,26.37
2023-03-11T01:39:21.438Z,26.37
2023-03-11T01:43:21.598Z,26.37
2023-03-11T01:47:21.414Z,26.38
2023-03-11T01:51:21.499Z,26.38
2023-03-11T01:55:21.528Z,26.40
2023-03-11T01:59:21.610Z,26.39
2023-03-11T02:03:22.259Z,26.41
2023-03-11T02:07:21.688Z,26.39
2023-03-11T02:11:21.680Z,26.39
2023-03-11T02:15:21.653Z,26.41
2023-03-11T02:19:21.744Z,26.43
2023-03-11T02:23:21.673Z,26.43
2023-03-11T02:27:21.718Z,26.42
2023-03-11T02:31:21.682Z,26.44
2023-03-11T02:35:21.646Z,26.45
2023-03-11T02:39:21.672Z,26.44
2023-03-11T02:43:21.660Z,26.47
2023-03-11T02:47:21.559Z,26.46
2023-03-11T02:51:21.655Z,26.47
2023-03-11T02:55:21.524Z,26.47
2023-03-11T02:59:21.547Z,26.48
2023-03-11T03:03:21.568Z,26.49
2023-03-11T03:07:21.568Z,26.49
2023-03-11T03:11:21.537Z,26.47
2023-03-11T03:15:21.504Z,26.48
2023-03-11T03:19:21.531Z,26.49
2023-03-11T03:23:21.569Z,26.51
2023-03-11T03:27:21.499Z,26.52
2023-03-11T03:31:21.583Z,26.52
2023-03-11T03:35:21.503Z,26.52
2023-03-11T03:39:21.491Z,26.52
2023-03-11T03:43:21.520Z,26.52
2023-03-11T03:47:21.550Z,26.54
2023-03-11T03:51:21.666Z,26.52
2023-03-11T03:55:21.611Z,26.53
2023-03-11T03:59:21.611Z,26.56
2023-03-11T04:03:21.711Z,26.54
2023-03-11T04:07:21.614Z,26.54
2023-03-11T04:11:21.631Z,26.55
2023-03-11T04:15:21.650Z,26.55
2023-03-11T04:19:21.579Z,26.57
2023-03-11T04:23:21.647Z,26.56
2023-03-11T04:27:22.265Z,26.57
2023-03-11T04:31:21.757Z,26.56
2023-03-11T04:35:21.634Z,26.57
2023-03-11T04:39:21.628Z,26.59
2023-03-11T04:43:21.724Z,26.59
2023-03-11T04:47:21.748Z,26.60
2023-03-11T04:51:21.691Z,26.57
2023-03-11T04:55:21.711Z,26.61
2023-03-11T04:59:21.823Z,26.60
2023-03-11T05:03:21.907Z,26.61
2023-03-11T05:07:21.912Z,26.60
2023-03-11T05:11:21.905Z,26.62
2023-03-11T05:15:22.028Z,26.62
2023-03-11T05:19:21.961Z,26.63
2023-03-11T05:23:21.993Z,26.65
2023-03-11T05:27:22.112Z,26.64
2023-03-11T05:31:22.125Z,26.63
2023-03-11T05:35:22.580Z,26.66
2023-03-11T05:39:22.195Z,26.64
2023-03-11T05:43:22.629Z,26.65
2023-03-11T05:47:22.359Z,26.67
2023-03-11T05:51:22.505Z,26.67
2023-03-11T05:55:22.747Z,26.68
2023-03-11T05:59:22.537Z,26.69
2023-03-11T06:03:22.673Z,26.67
2023-03-11T06:07:22.590Z,26.68
2023-03-11T06:11:23.047Z,26.68
2023-03-11T06:15:22.904Z,26.67
2023-03-11T06:19:22.822Z,26.64
2023-03-11T06:23:24.697Z,26.67
2023-03-11T06:27:23.316Z,26.63
2023-03-11T06:31:23.234Z,26.63
2023-03-11T06:35:22.958Z,26.67
2023-03-11T06:39:23.227Z,26.69
2023-03-11T06:43:23.041Z,26.72
2023-03-11T06:47:22.969Z,26.72
2023-03-11T06:51:23.036Z,26.71
2023-03-11T06:55:23.243Z,26.74
2023-03-11T06:59:23.391Z,26.73
2023-03-11T07:03:24.407Z,26.75
2023-03-11T07:07:23.425Z,26.72
2023-03-11T07:11:23.154Z,26.71
2023-03-11T07:15:23.173Z,26.71
2023-03-11T07:19:23.117Z,26.57
2023-03-11T07:23:23.637Z,26.56
2023-03-11T07:27:23.296Z,26.50
2023-03-11T07:31:23.107Z,26.51
2023-03-11T07:35:23.506Z,26.47
2023-03-11T07:39:23.219Z,26.49
2023-03-11T07:43:23.234Z,26.53
2023-03-11T07:47:24.211Z,26.48
2023-03-11T07:51:23.555Z,26.45
2023-03-11T07:55:23.549Z,26.40
2023-03-11T07:59:23.181Z,26.43
2023-03-11T08:03:23.534Z,26.45
2023-03-11T08:07:23.797Z,26.47
2023-03-11T08:11:23.740Z,26.43
2023-03-11T08:15:24.224Z,26.45
2023-03-11T08:19:24.326Z,26.48
2023-03-11T08:23:24.197Z,26.56
2023-03-11T08:27:24.695Z,26.50
2023-03-11T08:31:24.554Z,26.54
2023-03-11T08:35:24.207Z,26.55
2023-03-11T08:39:24.155Z,26.49
2023-03-11T08:43:24.403Z,26.40
2023-03-11T08:47:24.336Z,26.40
2023-03-11T08:51:24.127Z,26.42
2023-03-11T08:55:24.125Z,26.40
2023-03-11T08:59:24.003Z,26.35
2023-03-11T09:03:23.889Z,26.35
2023-03-11T09:07:24.228Z,26.38
2023-03-11T09:11:24.258Z,26.51
2023-03-11T09:15:24.742Z,26.55
2023-03-11T09:19:25.333Z,26.61
2023-03-11T09:23:24.693Z,26.62
2023-03-11T09:27:24.778Z,26.56
2023-03-11T09:31:25.295Z,26.55
2023-03-11T09:35:25.391Z,26.55
2023-03-11T09:39:25.186Z,26.59
2023-03-11T09:43:25.731Z,26.63
2023-03-11T09:47:26.506Z,26.70
2023-03-11T09:51:25.422Z,26.69
2023-03-11T09:55:25.558Z,26.73
2023-03-11T09:59:25.986Z,26.79
2023-03-11T10:03:26.110Z,26.76
2023-03-11T10:07:25.749Z,26.77
2023-03-11T10:11:26.160Z,26.78
2023-03-11T10:15:25.791Z,26.70
2023-03-11T10:19:26.094Z,26.60
2023-03-11T10:23:26.205Z,26.60
2023-03-11T10:27:26.014Z,26.60
2023-03-11T10:31:26.411Z,26.53
2023-03-11T10:35:26.488Z,26.58
2023-03-11T10:39:25.953Z,26.48
2023-03-11T10:43:25.914Z,26.37
2023-03-11T10:47:25.900Z,26.34
2023-03-11T10:51:26.293Z,26.31
2023-03-11T10:55:26.398Z,26.31
2023-03-11T10:59:26.284Z,26.26
2023-03-11T11:03:26.160Z,26.35
2023-03-11T11:07:26.114Z,26.33
2023-03-11T11:11:26.001Z,26.32
2023-03-11T11:15:26.210Z,26.16
2023-03-11T11:19:25.949Z,26.15
2023-03-11T11:23:25.913Z,26.09
2023-03-11T11:27:25.898Z,26.08
2023-03-11T11:31:26.104Z,26.13
2023-03-11T11:35:26.113Z,26.33
2023-03-11T11:39:26.015Z,26.33
2023-03-11T11:43:26.532Z,26.43
2023-03-11T11:47:26.300Z,26.39
2023-03-11T11:51:26.242Z,26.50
2023-03-11T11:55:26.705Z,26.56
2023-03-11T11:59:26.872Z,26.55
2023-03-11T12:03:27.021Z,26.24
2023-03-11T12:07:26.925Z,26.25
2023-03-11T12:11:27.056Z,26.40
2023-03-11T12:15:27.621Z,26.40
2023-03-11T12:19:27.810Z,26.27
2023-03-11T12:23:27.646Z,26.40
2023-03-11T12:27:27.615Z,26.48
2023-03-11T12:31:27.400Z,26.53
2023-03-11T12:35:27.620Z,26.51
2023-03-11T12:39:27.648Z,26.41
2023-03-11T12:43:27.511Z,26.29
2023-03-11T12:47:27.265Z,26.18
2023-03-11T12:51:27.533Z,26.08
2023-03-11T12:55:27.126Z,25.95
2023-03-11T12:59:28.417Z,25.95
2023-03-11T13:03:27.364Z,25.87
2023-03-11T13:07:27.313Z,25.77
2023-03-11T13:11:27.254Z,25.80
2023-03-11T13:15:27.526Z,25.75
2023-03-11T13:19:27.240Z,25.64
2023-03-11T13:23:27.545Z,25.62
2023-03-11T13:27:27.371Z,25.59
2023-03-11T13:31:27.550Z,25.51
2023-03-11T13:35:27.263Z,25.39
2023-03-11T13:39:27.048Z,25.23
2023-03-11T13:43:27.182Z,25.18
2023-03-11T13:47:27.265Z,25.10
2023-03-11T13:51:26.958Z,25.01
2023-03-11T13:55:27.111Z,24.95
2023-03-11T13:59:27.004Z,24.88
2023-03-11T14:03:26.850Z,25.02
2023-03-11T14:07:27.438Z,25.04
2023-03-11T14:11:26.994Z,25.01
2023-03-11T14:15:27.251Z,24.97
2023-03-11T14:19:27.253Z,24.99
2023-03-11T14:23:26.888Z,25.01
2023-03-11T14:27:26.785Z,24.93
2023-03-11T14:31:26.989Z,24.93
2023-03-11T14:35:27.046Z,24.87
2023-03-11T14:39:26.926Z,24.79
2023-03-11T14:43:26.903Z,24.79
2023-03-11T14:47:26.560Z,24.77
2023-03-11T14:51:26.524Z,24.79
2023-03-11T14:55:26.460Z,24.79
2023-03-11T14:59:26.445Z,24.78
2023-03-11T15:03:26.649Z,24.78
2023-03-11T15:07:26.560Z,24.78
2023-03-11T15:11:26.469Z,24.80
2023-03-11T15:15:26.284Z,24.82
2023-03-11T15:19:26.439Z,24.71
2023-03-11T15:23:26.448Z,24.72
2023-03-11T15:27:26.230Z,24.83
2023-03-11T15:31:26.152Z,24.79
2023-03-11T15:35:26.288Z,24.75
2023-03-11T15:39:26.272Z,24.86
2023-03-11T15:43:26.341Z,24.88
2023-03-11T15:47:26.303Z,24.81
2023-03-11T15:51:26.395Z,24.86
2023-03-11T15:55:26.214Z,25.03
2023-03-11T15:59:28.255Z,25.09
2023-03-11T16:03:26.408Z,25.19
2023-03-11T16:07:38.549Z,25.28
2023-03-11T16:11:27.048Z,25.35
2023-03-11T16:15:26.096Z,25.35
2023-03-11T16:19:27.083Z,25.37
2023-03-11T16:23:25.964Z,25.42
2023-03-11T16:27:26.124Z,25.45
2023-03-11T16:31:26.326Z,25.49
2023-03-11T16:35:26.154Z,25.56
2023-03-11T16:39:26.553Z,25.62
2023-03-11T16:43:26.432Z,25.64
2023-03-11T16:47:26.588Z,25.70
2023-03-11T16:51:26.741Z,25.74
2023-03-11T16:55:26.741Z,25.80
2023-03-11T16:59:26.702Z,25.83
2023-03-11T17:03:31.605Z,25.85
2023-03-11T17:07:27.593Z,25.91
2023-03-11T17:11:26.583Z,25.99
2023-03-11T17:15:26.710Z,25.98
2023-03-11T17:19:26.837Z,26.04
2023-03-11T17:23:26.744Z,26.17
2023-03-11T17:27:26.896Z,26.25
2023-03-11T17:31:26.778Z,26.26
2023-03-11T17:35:26.746Z,26.25
2023-03-11T17:39:26.846Z,26.25
2023-03-11T17:43:26.928Z,26.23
2023-03-11T17:47:26.813Z,26.20
2023-03-11T17:51:27.476Z,26.20
2023-03-11T17:55:26.898Z,26.20
2023-03-11T17:59:27.530Z,26.19
2023-03-11T18:03:27.473Z,26.22
2023-03-11T18:07:27.600Z,26.23
2023-03-11T18:11:27.322Z,26.23
2023-03-11T18:15:27.473Z,26.27
2023-03-11T18:19:27.466Z,26.29
2023-03-11T18:23:27.552Z,26.29
2023-03-11T18:27:27.615Z,26.31
2023-03-11T18:31:27.804Z,26.28
2023-03-11T18:35:27.848Z,26.28
2023-03-11T18:39:28.327Z,26.30
2023-03-11T18:43:28.984Z,26.33
2023-03-11T18:47:28.140Z,26.31
2023-03-11T18:51:28.171Z,26.34
2023-03-11T18:55:28.288Z,26.36
2023-03-11T18:59:28.343Z,26.36
2023-03-11T19:03:28.470Z,26.38
2023-03-11T19:07:29.137Z,26.36
2023-03-11T19:11:28.747Z,26.38
2023-03-11T19:15:28.834Z,26.39
2023-03-11T19:19:28.965Z,26.38
2023-03-11T19:23:29.094Z,26.41
2023-03-11T19:27:29.290Z,26.39
2023-03-11T19:31:29.450Z,26.40
2023-03-11T19:35:29.633Z,26.43
2023-03-11T19:39:29.924Z,26.40
2023-03-11T19:43:30.062Z,26.44
2023-03-11T19:47:30.216Z,26.44
2023-03-11T19:51:38.894Z,26.44
2023-03-11T19:55:31.439Z,26.41
2023-03-11T19:59:30.392Z,26.43
2023-03-11T20:03:30.999Z,26.42
2023-03-11T20:07:31.666Z,26.45
2023-03-11T20:11:30.688Z,26.43
2023-03-11T20:15:30.903Z,26.46
2023-03-11T20:19:30.571Z,26.43
2023-03-11T20:23:30.622Z,26.43
2023-03-11T20:27:30.485Z,26.46
2023-03-11T20:31:30.653Z,26.46
2023-03-11T20:35:30.532Z,26.46
2023-03-11T20:39:30.866Z,26.44
2023-03-11T20:43:30.702Z,26.48
2023-03-11T20:47:30.371Z,26.47
2023-03-11T20:51:30.221Z,26.46
2023-03-11T20:55:30.228Z,26.49
2023-03-11T20:59:30.404Z,26.52
2023-03-11T21:03:30.215Z,26.51
2023-03-11T21:07:30.160Z,26.50
2023-03-11T21:11:30.566Z,26.48
2023-03-11T21:15:30.079Z,26.49
2023-03-11T21:19:30.117Z,26.49
2023-03-11T21:23:30.260Z,26.50
2023-03-11T21:27:30.033Z,26.50
2023-03-11T21:31:30.106Z,26.48
2023-03-11T21:35:29.938Z,26.50
2023-03-11T21:39:30.671Z,26.49
2023-03-11T21:43:30.129Z,26.49
2023-03-11T21:47:30.205Z,26.51
2023-03-11T21:51:30.337Z,26.49
2023-03-11T21:55:29.645Z,26.50
2023-03-11T21:59:30.087Z,26.49
2023-03-11T22:03:29.956Z,26.50
2023-03-11T22:07:30.698Z,26.50
2023-03-11T22:11:29.668Z,26.51
2023-03-11T22:15:29.703Z,26.50
2023-03-11T22:19:29.443Z,26.52
2023-03-11T22:23:29.822Z,26.53
2023-03-11T22:27:29.879Z,26.51
2023-03-11T22:31:29.724Z,26.52
2023-03-11T22:35:29.659Z,26.53
2023-03-11T22:39:30.111Z,26.52
2023-03-11T22:43:29.956Z,26.54
2023-03-11T22:47:29.970Z,26.53
2023-03-11T22:51:30.135Z,26.53
2023-03-11T22:55:30.129Z,26.57
2023-03-11T22:59:30.383Z,26.55
2023-03-11T23:03:30.489Z,26.53
2023-03-11T23:07:30.662Z,26.56
2023-03-11T23:11:30.614Z,26.55
2023-03-11T23:15:30.776Z,26.55
2023-03-11T23:19:30.900Z,26.56
2023-03-11T23:23:31.296Z,26.55
2023-03-11T23:27:31.179Z,26.57
2023-03-11T23:31:31.386Z,26.56
2023-03-11T23:35:31.523Z,26.54
2023-03-11T23:39:31.628Z,26.54
2023-03-11T23:43:31.751Z,26.58
2023-03-11T23:47:31.930Z,26.56
2023-03-11T23:51:32.186Z,26.58
2023-03-11T23:55:32.625Z,26.58
2023-03-11T23:59:32.747Z,26.57
